Time;durP1;ratioP1;P1;durP2;ratioP2;P2;SDS_P1;SDS_P2;PMS_P1;PMS_P2;Temp;Humidity;BMP_temperature;BMP_pressure;BME280_temperature;BME280_humidity;BME280_pressure;Samples;Min_cycle;Max_cycle;Signal;HPM_P1;HPM_P2
2021/08/26 00:07:34;;;;;;;11.77;5.85;;;20.20;92.40;;;;;;6155800;23;20336;-79
2021/08/26 00:10:06;;;;;;;9.15;5.97;;;20.20;92.50;;;;;;6155526;23;19997;-79
2021/08/26 00:12:32;;;;;;;9.75;5.28;;;20.20;92.50;;;;;;6130059;23;20488;-82
2021/08/26 00:14:59;;;;;;;11.10;5.68;;;20.20;92.60;;;;;;6156188;23;20010;-81
2021/08/26 00:17:25;;;;;;;11.32;6.18;;;20.30;92.70;;;;;;6155523;23;20081;-82
2021/08/26 00:19:53;;;;;;;8.50;5.38;;;20.20;92.60;;;;;;6157956;23;20492;-79
2021/08/26 00:22:19;;;;;;;14.27;5.75;;;20.20;92.70;;;;;;6155604;23;19997;-79
2021/08/26 00:24:45;;;;;;;11.70;6.03;;;20.20;92.70;;;;;;6155614;23;20009;-81
2021/08/26 00:27:11;;;;;;;9.07;6.18;;;20.20;92.80;;;;;;6155753;23;20056;-82
2021/08/26 00:29:37;;;;;;;11.25;5.80;;;20.20;92.90;;;;;;6155610;23;20491;-81
2021/08/26 00:32:03;;;;;;;10.48;6.28;;;20.10;92.90;;;;;;6155438;23;20032;-78
2021/08/26 00:34:29;;;;;;;11.07;6.05;;;20.00;93.00;;;;;;6155518;23;20006;-78
2021/08/26 00:36:55;;;;;;;10.25;5.93;;;19.90;93.10;;;;;;6155663;23;20009;-80
2021/08/26 00:39:20;;;;;;;8.45;5.45;;;19.80;93.30;;;;;;6155375;23;19998;-78
2021/08/26 00:41:46;;;;;;;9.88;6.03;;;19.70;93.50;;;;;;6155317;23;20002;-78
2021/08/26 00:44:11;;;;;;;13.50;5.35;;;19.60;93.60;;;;;;6155547;23;20006;-79
2021/08/26 00:46:39;;;;;;;7.70;5.45;;;19.50;93.70;;;;;;6155541;23;20022;-80
2021/08/26 00:49:13;;;;;;;14.10;6.20;;;19.50;93.80;;;;;;6155515;23;20409;-79
2021/08/26 00:51:39;;;;;;;10.45;5.75;;;19.50;93.90;;;;;;6155374;23;20333;-81
2021/08/26 00:54:05;;;;;;;8.88;5.80;;;19.40;94.00;;;;;;6155638;23;20014;-81
2021/08/26 00:56:30;;;;;;;8.18;5.68;;;19.40;94.00;;;;;;6131275;23;20428;-81
2021/08/26 00:58:59;;;;;;;8.60;5.65;;;19.40;94.10;;;;;;6157702;23;20011;-77
2021/08/26 01:01:29;;;;;;;8.60;5.40;;;19.40;94.30;;;;;;6156420;23;20017;-74
2021/08/26 01:04:23;;;;;;;12.60;6.55;;;19.40;94.30;;;;;;6156488;23;20332;-77
2021/08/26 01:07:06;;;;;;;18.10;5.82;;;19.40;94.40;;;;;;6130232;23;20006;-74
2021/08/26 01:09:40;;;;;;;8.68;5.78;;;19.40;94.80;;;;;;6130110;23;20037;-76
2021/08/26 01:12:08;;;;;;;10.18;5.13;;;19.30;94.70;;;;;;6130285;23;20006;-73
2021/08/26 01:14:35;;;;;;;10.27;6.03;;;19.30;94.80;;;;;;6129959;23;20010;-80
2021/08/26 01:17:00;;;;;;;9.30;5.30;;;19.30;94.90;;;;;;6156325;23;19997;-77
2021/08/26 01:19:26;;;;;;;9.77;5.50;;;19.20;95.00;;;;;;6129718;23;20090;-75
2021/08/26 01:21:52;;;;;;;8.95;5.57;;;19.20;95.10;;;;;;6154652;23;20029;-74
2021/08/26 01:24:20;;;;;;;12.30;6.07;;;19.20;95.30;;;;;;6130090;23;20376;-72
2021/08/26 01:26:53;;;;;;;13.88;5.80;;;19.10;95.30;;;;;;6130131;23;20056;-79
2021/08/26 01:29:20;;;;;;;10.85;6.28;;;19.10;95.50;;;;;;6156032;23;20002;-75
2021/08/26 01:31:47;;;;;;;11.35;5.75;;;19.10;95.50;;;;;;6129851;23;20092;-71
2021/08/26 01:34:17;;;;;;;14.40;6.03;;;19.10;95.50;;;;;;6154568;23;20017;-74
2021/08/26 01:36:43;;;;;;;8.70;5.35;;;19.10;95.70;;;;;;6129933;23;20021;-74
2021/08/26 01:39:11;;;;;;;21.63;6.78;;;19.10;95.70;;;;;;6131027;23;20012;-88
2021/08/26 01:41:46;;;;;;;10.68;6.10;;;19.00;95.70;;;;;;6156562;23;20075;-76
2021/08/26 01:44:29;;;;;;;10.07;5.78;;;19.10;95.70;;;;;;6130516;23;20020;-90
2021/08/26 01:47:05;;;;;;;9.88;5.55;;;19.10;95.90;;;;;;6156730;23;20067;-88
2021/08/26 01:49:32;;;;;;;9.35;5.68;;;19.00;95.90;;;;;;6130596;23;20037;-87
2021/08/26 01:51:57;;;;;;;12.50;6.13;;;19.00;96.00;;;;;;6156632;23;20023;-85
2021/08/26 01:54:24;;;;;;;15.02;6.07;;;19.00;96.20;;;;;;6129869;23;20414;-87
2021/08/26 01:56:49;;;;;;;10.20;5.80;;;18.90;96.20;;;;;;6156118;23;20001;-79
2021/08/26 01:59:15;;;;;;;10.80;5.97;;;18.90;96.40;;;;;;6130181;23;20002;-88
2021/08/26 02:01:41;;;;;;;10.75;6.43;;;18.90;96.40;;;;;;6130849;23;19997;-88
2021/08/26 02:04:07;;;;;;;10.93;6.38;;;18.90;96.50;;;;;;6130487;23;20008;-90
2021/08/26 02:06:33;;;;;;;11.13;6.30;;;18.90;96.50;;;;;;6156432;23;20080;-87
2021/08/26 02:09:00;;;;;;;10.85;5.85;;;18.90;96.60;;;;;;6130174;23;20005;-87
2021/08/26 02:11:25;;;;;;;11.80;5.95;;;18.80;96.70;;;;;;6155773;23;20056;-84
2021/08/26 02:13:51;;;;;;;11.07;6.70;;;18.90;96.80;;;;;;6154716;23;20005;-84
2021/08/26 02:16:17;;;;;;;8.48;5.45;;;18.90;96.80;;;;;;6130587;23;20010;-75
2021/08/26 02:18:44;;;;;;;12.63;6.28;;;18.90;96.90;;;;;;6130580;23;20096;-75
2021/08/26 02:21:10;;;;;;;12.05;6.03;;;18.80;96.90;;;;;;6156715;23;20376;-76
2021/08/26 02:23:36;;;;;;;15.90;6.00;;;18.80;96.90;;;;;;6155445;23;20005;-80
2021/08/26 02:26:01;;;;;;;9.23;5.68;;;18.80;96.90;;;;;;6155041;23;20044;-76
2021/08/26 02:28:27;;;;;;;10.27;5.60;;;18.80;96.90;;;;;;6155152;23;20040;-72
2021/08/26 02:30:53;;;;;;;11.15;5.32;;;18.80;96.90;;;;;;6156586;23;20002;-73
2021/08/26 02:33:19;;;;;;;12.23;5.53;;;18.80;96.90;;;;;;6130366;23;20002;-76
2021/08/26 02:35:44;;;;;;;15.65;6.13;;;18.80;96.90;;;;;;6156478;23;20040;-84
2021/08/26 02:38:10;;;;;;;10.25;6.13;;;18.80;97.00;;;;;;6155019;23;20013;-75
2021/08/26 02:40:36;;;;;;;14.13;6.30;;;18.80;97.10;;;;;;6155117;23;20005;-74
2021/08/26 02:43:02;;;;;;;10.13;6.25;;;18.80;97.00;;;;;;6130541;23;20425;-75
2021/08/26 02:45:28;;;;;;;9.82;5.85;;;18.80;97.00;;;;;;6156402;23;20006;-75
2021/08/26 02:47:53;;;;;;;10.35;6.53;;;18.70;97.10;;;;;;6130221;23;20005;-73
2021/08/26 02:50:19;;;;;;;11.55;5.78;;;18.70;97.30;;;;;;6130206;23;20009;-75
2021/08/26 02:52:44;;;;;;;9.93;6.13;;;18.70;97.50;;;;;;6158755;23;20005;-76
2021/08/26 02:55:10;;;;;;;9.95;5.88;;;18.60;97.50;;;;;;6157819;23;20111;-74
2021/08/26 02:57:36;;;;;;;12.80;6.57;;;18.70;97.50;;;;;;6130278;23;20432;-74
2021/08/26 03:00:03;;;;;;;13.75;6.32;;;18.60;97.50;;;;;;6156090;23;20060;-76
2021/08/26 03:02:28;;;;;;;11.05;6.13;;;18.60;97.50;;;;;;6156020;23;20009;-71
2021/08/26 03:04:54;;;;;;;11.70;6.50;;;18.70;97.70;;;;;;6156029;23;20010;-73
2021/08/26 03:07:20;;;;;;;9.63;6.10;;;18.70;97.40;;;;;;6156358;23;20010;-73
2021/08/26 03:09:45;;;;;;;9.25;5.97;;;18.70;97.50;;;;;;6156281;23;20414;-76
2021/08/26 03:12:11;;;;;;;19.55;6.70;;;18.70;97.50;;;;;;6129837;23;20028;-73
2021/08/26 03:14:36;;;;;;;9.88;6.50;;;18.70;97.60;;;;;;6155904;23;20103;-83
2021/08/26 03:17:02;;;;;;;9.38;6.03;;;18.70;97.70;;;;;;6154686;23;20025;-73
2021/08/26 03:19:28;;;;;;;9.75;6.00;;;18.60;97.80;;;;;;6155535;23;20005;-83
2021/08/26 03:21:54;;;;;;;10.05;6.28;;;18.70;97.90;;;;;;6154460;23;20005;-72
2021/08/26 03:24:19;;;;;;;11.20;6.78;;;18.70;98.10;;;;;;6156169;23;20001;-75
2021/08/26 03:26:45;;;;;;;11.63;6.07;;;18.70;98.30;;;;;;6156043;23;20005;-85
2021/08/26 03:29:10;;;;;;;11.68;5.72;;;18.70;98.00;;;;;;6155897;23;20013;-90
2021/08/26 03:31:36;;;;;;;10.70;6.15;;;18.80;97.90;;;;;;6155923;23;20002;-78
2021/08/26 03:34:02;;;;;;;9.23;5.70;;;18.80;98.00;;;;;;6155928;23;20002;-73
2021/08/26 03:36:28;;;;;;;17.15;6.32;;;18.80;98.00;;;;;;6155861;23;20028;-71
2021/08/26 03:38:54;;;;;;;12.50;5.88;;;18.80;98.00;;;;;;6154454;23;20041;-71
2021/08/26 03:41:20;;;;;;;13.07;6.18;;;18.80;98.00;;;;;;6155787;23;20001;-73
2021/08/26 03:43:47;;;;;;;21.90;5.90;;;18.80;98.00;;;;;;6156018;23;20006;-72
2021/08/26 03:46:13;;;;;;;16.42;6.32;;;18.80;98.10;;;;;;6156100;23;20006;-75
2021/08/26 03:48:38;;;;;;;19.40;6.22;;;18.80;98.50;;;;;;6155835;23;20332;-84
2021/08/26 03:51:04;;;;;;;8.38;5.53;;;18.70;99.00;;;;;;6155619;23;20425;-73
2021/08/26 03:53:29;;;;;;;11.05;6.32;;;18.70;99.10;;;;;;6155724;23;20005;-75
2021/08/26 03:55:55;;;;;;;11.30;6.30;;;18.80;99.10;;;;;;6154134;23;20028;-75
2021/08/26 03:58:20;;;;;;;14.05;6.30;;;18.80;99.00;;;;;;6155752;23;20029;-72
2021/08/26 04:00:46;;;;;;;10.48;5.95;;;18.80;99.30;;;;;;6149012;23;20018;-74
2021/08/26 04:03:12;;;;;;;10.27;6.03;;;18.80;99.00;;;;;;6149300;23;20002;-75
2021/08/26 04:05:37;;;;;;;11.02;6.45;;;18.80;99.00;;;;;;6126166;23;20460;-76
2021/08/26 04:08:03;;;;;;;10.00;6.32;;;18.80;99.10;;;;;;6124538;23;20009;-72
2021/08/26 04:10:29;;;;;;;10.77;5.95;;;18.80;98.60;;;;;;6124808;23;20002;-75
2021/08/26 04:12:55;;;;;;;14.07;6.47;;;18.80;98.40;;;;;;6126163;23;20002;-76
2021/08/26 04:15:20;;;;;;;13.13;6.22;;;18.90;98.00;;;;;;6125990;23;20014;-75
2021/08/26 04:17:46;;;;;;;16.27;7.18;;;18.90;97.80;;;;;;6126392;23;20002;-72
2021/08/26 04:20:12;;;;;;;13.40;6.65;;;18.80;98.60;;;;;;6149287;23;20006;-79
2021/08/26 04:22:37;;;;;;;21.30;6.68;;;18.70;98.50;;;;;;6126614;23;20081;-85
2021/08/26 04:25:04;;;;;;;12.63;6.25;;;18.70;98.70;;;;;;6124907;23;20005;-78
2021/08/26 04:27:30;;;;;;;13.75;6.85;;;18.60;98.40;;;;;;6149097;23;20377;-79
2021/08/26 04:29:55;;;;;;;11.25;6.43;;;18.60;98.40;;;;;;6127358;23;20002;-73
2021/08/26 04:32:21;;;;;;;11.05;6.53;;;18.50;98.40;;;;;;6129032;23;19999;-71
2021/08/26 04:34:47;;;;;;;10.77;6.47;;;18.60;98.40;;;;;;6128563;23;20010;-74
2021/08/26 04:37:13;;;;;;;11.20;6.40;;;18.60;98.60;;;;;;6128235;23;20002;-72
2021/08/26 04:39:38;;;;;;;11.85;6.45;;;18.60;98.60;;;;;;6128432;23;20002;-73
2021/08/26 04:42:04;;;;;;;10.23;6.22;;;18.50;98.60;;;;;;6127928;23;20037;-77
2021/08/26 04:44:29;;;;;;;13.38;7.03;;;18.50;98.70;;;;;;6126296;23;20061;-75
2021/08/26 04:46:55;;;;;;;12.77;6.18;;;18.50;98.70;;;;;;6126589;23;20391;-74
2021/08/26 04:49:21;;;;;;;11.30;6.55;;;18.50;98.60;;;;;;6126628;23;20013;-75
2021/08/26 04:51:48;;;;;;;10.68;6.40;;;18.50;98.80;;;;;;6151439;23;20034;-74
2021/08/26 04:54:13;;;;;;;12.52;6.80;;;18.80;98.40;;;;;;6126616;23;20018;-73
2021/08/26 04:56:39;;;;;;;11.55;6.43;;;19.10;97.60;;;;;;6126248;23;20085;-74
2021/08/26 04:59:05;;;;;;;17.45;6.18;;;19.50;96.80;;;;;;6129067;23;20006;-78
2021/08/26 05:01:30;;;;;;;11.50;6.05;;;20.10;96.00;;;;;;6157776;23;20002;-73
2021/08/26 05:03:56;;;;;;;10.18;6.28;;;20.80;95.20;;;;;;6131036;23;20009;-77
2021/08/26 05:06:22;;;;;;;20.42;7.03;;;21.60;93.80;;;;;;6156314;23;20009;-75
2021/08/26 05:08:47;;;;;;;13.48;6.55;;;22.60;92.60;;;;;;6157406;23;20068;-75
2021/08/26 05:11:20;;;;;;;13.05;6.20;;;23.60;91.20;;;;;;6157215;23;19998;-71
2021/08/26 05:13:46;;;;;;;12.13;6.47;;;24.50;90.00;;;;;;6131167;23;20025;-76
2021/08/26 05:16:12;;;;;;;12.23;6.40;;;25.10;87.10;;;;;;6155560;23;20047;-75
2021/08/26 05:18:38;;;;;;;12.20;7.20;;;25.70;85.50;;;;;;6157508;23;20005;-73
2021/08/26 05:21:03;;;;;;;10.02;6.47;;;26.40;84.40;;;;;;6157448;23;20500;-83
2021/08/26 05:23:29;;;;;;;8.82;5.85;;;27.20;82.50;;;;;;6157425;23;20372;-76
2021/08/26 05:25:55;;;;;;;8.32;5.80;;;27.40;80.50;;;;;;6156994;23;20002;-75
2021/08/26 05:28:21;;;;;;;9.90;6.20;;;27.00;80.20;;;;;;6157231;23;20048;-73
2021/08/26 05:30:47;;;;;;;12.43;7.00;;;26.60;80.80;;;;;;6159651;23;20002;-76
2021/08/26 05:33:13;;;;;;;10.75;6.43;;;26.50;81.80;;;;;;6133239;23;20012;-91
2021/08/26 05:35:39;;;;;;;13.45;6.47;;;27.00;80.70;;;;;;6158043;23;20010;-91
2021/08/26 05:38:05;;;;;;;10.27;6.47;;;27.60;79.40;;;;;;6158021;23;20032;-80
2021/08/26 05:40:31;;;;;;;11.40;6.35;;;28.50;77.50;;;;;;6130685;23;20002;-76
2021/08/26 05:42:57;;;;;;;8.20;5.50;;;29.30;76.00;;;;;;6156740;23;19994;-74
2021/08/26 05:45:22;;;;;;;10.40;5.70;;;30.00;74.90;;;;;;6157026;23;20036;-86
2021/08/26 05:47:54;;;;;;;12.95;6.05;;;30.50;73.50;;;;;;6158196;23;20002;-88
2021/08/26 05:50:21;;;;;;;17.75;6.68;;;30.90;72.80;;;;;;6157997;23;20052;-90
2021/08/26 05:52:48;;;;;;;22.70;7.30;;;31.10;72.10;;;;;;6157953;23;20008;-91
2021/08/26 05:55:16;;;;;;;19.52;6.82;;;31.30;72.50;;;;;;6156646;23;20447;-90
2021/08/26 05:57:42;;;;;;;13.15;5.72;;;31.90;71.50;;;;;;6158028;23;20004;-91
2021/08/26 06:00:10;;;;;;;16.10;6.72;;;32.50;69.30;;;;;;6131521;23;20097;-92
2021/08/26 06:02:36;;;;;;;19.83;6.55;;;32.80;68.60;;;;;;6157698;23;20041;-91
2021/08/26 06:05:02;;;;;;;9.35;5.57;;;33.10;68.10;;;;;;6131704;23;20033;-92
2021/08/26 06:07:28;;;;;;;9.60;5.57;;;33.30;67.50;;;;;;6157662;23;20062;-92
2021/08/26 06:09:54;;;;;;;9.68;5.28;;;33.40;67.30;;;;;;6157687;23;20002;-92
2021/08/26 06:12:20;;;;;;;14.30;5.55;;;33.50;66.30;;;;;;6156304;23;20060;-90
2021/08/26 06:14:46;;;;;;;11.48;4.90;;;33.40;66.60;;;;;;6156038;23;20041;-73
2021/08/26 06:17:12;;;;;;;7.78;5.25;;;33.60;66.30;;;;;;6156735;23;20431;-71
2021/08/26 06:19:38;;;;;;;8.85;5.15;;;33.60;65.90;;;;;;6156399;23;20009;-73
2021/08/26 06:22:04;;;;;;;7.68;4.75;;;33.40;65.60;;;;;;6156817;23;19997;-75
2021/08/26 06:24:29;;;;;;;7.78;5.20;;;33.30;66.00;;;;;;6130526;23;20033;-71
2021/08/26 06:26:58;;;;;;;11.82;4.63;;;33.20;66.10;;;;;;6156570;23;20424;-90
2021/08/26 06:29:24;;;;;;;7.32;4.88;;;33.30;66.00;;;;;;6156923;23;20009;-70
2021/08/26 06:31:50;;;;;;;8.65;5.00;;;32.90;65.60;;;;;;6156522;23;19994;-76
2021/08/26 06:34:16;;;;;;;7.88;5.00;;;32.70;66.00;;;;;;6156119;23;20020;-73
2021/08/26 06:36:42;;;;;;;9.25;5.35;;;32.60;66.00;;;;;;6156072;23;20432;-70
2021/08/26 06:39:08;;;;;;;7.50;4.93;;;32.80;66.20;;;;;;6154701;23;20001;-74
2021/08/26 06:41:33;;;;;;;8.75;4.80;;;33.10;65.50;;;;;;6156250;23;20073;-87
2021/08/26 06:43:59;;;;;;;8.82;5.28;;;33.20;65.10;;;;;;6130362;23;20005;-88
2021/08/26 06:46:25;;;;;;;8.38;5.22;;;33.50;65.10;;;;;;6156670;23;20316;-74
2021/08/26 06:48:51;;;;;;;11.32;5.15;;;33.90;65.10;;;;;;6156118;23;20013;-71
2021/08/26 06:51:18;;;;;;;23.25;5.60;;;34.40;64.20;;;;;;6156628;23;19998;-74
2021/08/26 06:53:44;;;;;;;7.85;4.97;;;34.80;63.00;;;;;;6130184;23;20006;-75
2021/08/26 06:56:09;;;;;;;7.95;5.32;;;34.60;62.50;;;;;;6129848;23;20068;-77
2021/08/26 06:58:35;;;;;;;9.13;4.75;;;34.80;62.40;;;;;;6156316;23;20013;-71
2021/08/26 07:01:01;;;;;;;8.07;4.97;;;34.90;61.80;;;;;;6149492;23;20032;-75
2021/08/26 07:03:26;;;;;;;7.65;4.30;;;35.30;61.80;;;;;;6125213;23;20010;-71
2021/08/26 07:05:52;;;;;;;11.70;4.97;;;35.90;60.70;;;;;;6127014;23;20006;-74
2021/08/26 07:08:17;;;;;;;8.50;4.53;;;35.90;61.10;;;;;;6126792;23;20032;-70
2021/08/26 07:10:44;;;;;;;5.53;4.40;;;36.50;59.40;;;;;;6127062;23;20412;-91
2021/08/26 07:13:10;;;;;;;7.47;4.45;;;36.50;59.00;;;;;;6126829;23;20006;-71
2021/08/26 07:15:35;;;;;;;8.18;4.30;;;36.50;59.40;;;;;;6127280;23;20042;-72
2021/08/26 07:18:03;;;;;;;5.80;4.45;;;36.50;58.80;;;;;;6127365;23;20033;-73
2021/08/26 07:20:28;;;;;;;7.78;4.85;;;36.60;59.00;;;;;;6150465;23;20060;-76
2021/08/26 07:22:54;;;;;;;7.57;4.40;;;37.30;59.00;;;;;;6128032;23;20059;-76
2021/08/26 07:25:19;;;;;;;6.20;4.65;;;37.90;58.50;;;;;;6127890;23;20006;-78
2021/08/26 07:27:45;;;;;;;12.75;4.32;;;38.40;58.30;;;;;;6128639;23;20012;-80
2021/08/26 07:30:11;;;;;;;6.60;3.97;;;38.70;57.90;;;;;;6151185;23;20013;-92
2021/08/26 07:32:37;;;;;;;10.82;4.38;;;39.20;57.60;;;;;;6126883;23;20006;-72
2021/08/26 07:35:03;;;;;;;8.63;4.50;;;39.60;56.60;;;;;;6126655;23;20018;-78
2021/08/26 07:37:28;;;;;;;7.38;3.97;;;40.40;56.10;;;;;;6125059;23;20029;-81
2021/08/26 07:39:54;;;;;;;5.57;3.70;;;40.40;55.00;;;;;;6126412;23;20009;-73
2021/08/26 07:42:20;;;;;;;8.32;4.15;;;40.30;54.80;;;;;;6126695;23;20002;-80
2021/08/26 07:44:46;;;;;;;7.35;3.83;;;39.30;55.30;;;;;;6125309;23;20428;-74
2021/08/26 07:47:12;;;;;;;8.88;3.83;;;38.50;56.20;;;;;;6126446;23;20425;-82
2021/08/26 07:49:37;;;;;;;5.22;3.60;;;37.50;57.60;;;;;;6126803;23;20017;-81
2021/08/26 07:52:03;;;;;;;5.93;3.95;;;36.20;58.70;;;;;;6149212;23;20414;-79
2021/08/26 07:54:29;;;;;;;7.43;4.22;;;35.10;59.60;;;;;;6126393;23;20057;-74
2021/08/26 07:56:55;;;;;;;9.43;4.00;;;34.10;61.30;;;;;;6149298;23;20436;-75
2021/08/26 07:59:20;;;;;;;5.88;3.95;;;33.10;63.00;;;;;;6130501;23;20388;-78
2021/08/26 08:01:46;;;;;;;8.23;4.15;;;32.20;64.80;;;;;;6129806;23;20013;-75
2021/08/26 08:04:12;;;;;;;7.40;4.18;;;31.40;66.10;;;;;;6155474;23;19997;-84
2021/08/26 08:06:37;;;;;;;8.95;4.95;;;30.70;67.50;;;;;;6156744;23;20013;-85
2021/08/26 08:09:03;;;;;;;7.07;5.00;;;30.20;68.50;;;;;;6160192;23;20076;-85
2021/08/26 08:11:29;;;;;;;8.98;4.43;;;29.60;69.90;;;;;;6129708;23;20369;-75
2021/08/26 08:13:54;;;;;;;7.05;4.90;;;28.90;70.90;;;;;;6129925;23;20009;-72
2021/08/26 08:16:20;;;;;;;9.23;5.80;;;28.30;72.40;;;;;;6129331;23;20017;-74
2021/08/26 08:18:46;;;;;;;12.73;5.20;;;28.10;73.40;;;;;;6155656;23;20002;-82
2021/08/26 08:21:12;;;;;;;10.65;5.38;;;28.30;73.70;;;;;;6129984;23;20092;-88
2021/08/26 08:23:37;;;;;;;11.32;5.53;;;28.80;73.20;;;;;;6153942;23;20033;-76
2021/08/26 08:26:03;;;;;;;9.20;5.00;;;29.60;71.60;;;;;;6154330;23;20013;-76
2021/08/26 08:28:28;;;;;;;9.90;4.47;;;31.10;70.00;;;;;;6154232;23;20332;-89
2021/08/26 08:30:54;;;;;;;9.30;4.93;;;31.90;67.70;;;;;;6154308;23;20009;-88
2021/08/26 08:33:20;;;;;;;19.88;5.38;;;32.10;66.60;;;;;;6154038;23;20005;-87
2021/08/26 08:35:46;;;;;;;10.73;4.95;;;32.30;66.60;;;;;;6154209;23;20072;-93
2021/08/26 08:38:11;;;;;;;7.97;5.38;;;32.60;66.70;;;;;;6129505;23;20002;-89
2021/08/26 08:40:39;;;;;;;13.70;5.82;;;32.80;66.50;;;;;;6129708;23;20012;-87
2021/08/26 08:43:05;;;;;;;22.67;6.07;;;32.90;65.90;;;;;;6157777;23;20002;-88
2021/08/26 08:45:30;;;;;;;11.38;5.15;;;32.80;65.80;;;;;;6156620;23;20002;-86
2021/08/26 08:47:58;;;;;;;12.13;5.82;;;32.50;66.40;;;;;;6153632;23;20044;-88
2021/08/26 08:50:24;;;;;;;10.38;4.80;;;32.20;67.30;;;;;;6128647;23;20005;-89
2021/08/26 08:52:51;;;;;;;9.57;5.45;;;31.70;68.10;;;;;;6154404;23;19998;-86
2021/08/26 08:55:17;;;;;;;7.72;5.38;;;31.60;68.60;;;;;;6152694;23;20016;-88
2021/08/26 08:57:43;;;;;;;15.10;5.85;;;31.60;68.50;;;;;;6154543;23;20002;-88
2021/08/26 09:00:11;;;;;;;13.52;5.78;;;31.70;68.50;;;;;;6122928;23;20022;-87
2021/08/26 09:02:37;;;;;;;10.95;5.70;;;31.60;68.70;;;;;;6123428;23;20002;-88
2021/08/26 09:05:03;;;;;;;9.95;5.50;;;31.70;69.40;;;;;;6123546;23;20057;-88
2021/08/26 09:07:31;;;;;;;8.73;5.35;;;31.80;69.70;;;;;;6123005;23;20030;-88
2021/08/26 09:09:58;;;;;;;10.93;5.50;;;31.90;69.10;;;;;;6122872;23;20084;-88
2021/08/26 09:12:42;;;;;;;13.95;4.60;;;31.90;68.70;;;;;;6124205;23;20082;-86
2021/08/26 09:15:14;;;;;;;10.45;4.20;;;31.60;69.10;;;;;;6124416;23;20076;-86
2021/08/26 09:17:44;;;;;;;13.50;4.78;;;31.40;69.30;;;;;;6125609;23;20002;-90
2021/08/26 09:20:16;;;;;;;8.00;3.40;;;31.10;69.60;;;;;;6126423;23;20006;-87
2021/08/26 09:22:42;;;;;;;10.32;4.28;;;30.70;70.30;;;;;;6126407;23;20005;-75
2021/08/26 09:25:13;;;;;;;9.90;4.82;;;30.30;71.20;;;;;;6126148;23;20455;-84
2021/08/26 09:27:44;;;;;;;12.93;4.90;;;29.90;72.50;;;;;;6127915;23;20439;-92
2021/08/26 09:30:12;;;;;;;11.00;4.63;;;29.40;73.50;;;;;;6125597;23;20084;-81
2021/08/26 09:32:57;;;;;;;18.35;6.30;;;28.70;75.10;;;;;;6126751;23;20006;-80
2021/08/26 09:35:28;;;;;;;16.80;5.82;;;28.20;76.40;;;;;;6126854;23;20452;-72
2021/08/26 09:37:55;;;;;;;;;;;27.80;77.50;;;;;;6126986;23;20009;-82
2021/08/26 09:40:26;;;;;;;13.05;5.32;;;27.60;77.50;;;;;;6125523;23;19927;-75
2021/08/26 09:43:04;;;;;;;14.85;5.30;;;27.60;77.60;;;;;;6101780;23;20017;-74
2021/08/26 09:45:32;;;;;;;8.77;5.10;;;27.50;77.60;;;;;;6126879;23;20417;-73
2021/08/26 09:48:11;;;;;;;8.65;4.97;;;27.40;77.60;;;;;;6126841;23;20002;-76
2021/08/26 09:50:52;;;;;;;6.32;4.47;;;27.20;77.40;;;;;;6127045;23;20362;-78
2021/08/26 09:53:39;;;;;;;11.35;4.75;;;27.20;77.70;;;;;;6126793;23;20006;-83
2021/08/26 09:56:08;;;;;;;14.00;4.47;;;27.30;77.40;;;;;;6118696;23;20549;-79
2021/08/26 09:58:36;;;;;;;9.20;4.63;;;27.50;77.10;;;;;;6150560;23;20002;-79
2021/08/26 10:01:19;;;;;;;8.55;4.30;;;27.70;77.20;;;;;;6152578;23;20040;-73
2021/08/26 10:03:46;;;;;;;9.32;4.80;;;27.90;76.90;;;;;;6156491;23;20010;-78
2021/08/26 10:06:16;;;;;;;6.00;4.78;;;28.00;77.00;;;;;;6130399;23;20006;-86
2021/08/26 10:08:48;;;;;;;7.70;4.45;;;28.20;76.50;;;;;;6130622;23;20074;-76
2021/08/26 10:11:19;;;;;;;5.72;4.40;;;28.30;75.70;;;;;;6129590;23;20002;-76
2021/08/26 10:13:47;;;;;;;6.40;4.63;;;28.50;75.60;;;;;;6155833;23;20045;-84
2021/08/26 10:16:14;;;;;;;13.77;5.38;;;28.50;75.40;;;;;;6155723;23;20036;-81
2021/08/26 10:18:41;;;;;;;6.10;4.22;;;28.70;75.10;;;;;;6130014;23;20008;-83
2021/08/26 10:24:32;;;;;;;10.57;4.47;;;28.70;74.70;;;;;;6103351;23;20012;-79
2021/08/26 10:27:11;;;;;;;10.30;4.35;;;28.70;75.20;;;;;;6130410;23;20031;-80
2021/08/26 10:29:49;;;;;;;12.27;4.18;;;29.00;75.00;;;;;;6157417;23;20008;-78
2021/08/26 10:32:24;;;;;;;7.70;4.85;;;29.10;75.10;;;;;;6156861;23;20009;-89
2021/08/26 10:35:08;;;;;;;16.45;4.40;;;29.20;74.80;;;;;;6156089;23;20325;-74
2021/08/26 10:37:54;;;;;;;6.35;3.70;;;29.40;74.80;;;;;;6130333;23;20029;-81
2021/08/26 10:40:30;;;;;;;12.07;4.40;;;29.60;73.90;;;;;;6105715;23;20006;-77
2021/08/26 10:42:58;;;;;;;5.85;3.65;;;29.80;73.60;;;;;;6133645;23;20013;-91
2021/08/26 10:45:46;;;;;;;4.80;3.33;;;29.80;73.70;;;;;;6135068;23;20344;-84
2021/08/26 10:48:16;;;;;;;9.90;3.88;;;29.80;73.90;;;;;;6131268;23;20006;-84
2021/08/26 10:50:45;;;;;;;14.02;4.25;;;29.70;73.50;;;;;;6130557;23;20081;-87
2021/08/26 10:53:29;;;;;;;6.68;3.70;;;29.70;72.70;;;;;;6130091;23;20020;-91
2021/08/26 10:55:58;;;;;;;6.57;3.60;;;29.70;72.40;;;;;;6156259;23;20013;-82
2021/08/26 10:58:26;;;;;;;7.50;4.35;;;29.60;72.40;;;;;;6106664;23;20009;-89
2021/08/26 11:01:08;;;;;;;4.88;4.20;;;29.60;72.70;;;;;;6130367;23;20056;-83
2021/08/26 11:03:46;;;;;;;11.32;4.00;;;29.50;72.70;;;;;;6105799;23;20068;-82
2021/08/26 11:06:28;;;;;;;6.60;3.90;;;29.40;73.30;;;;;;6153961;23;20014;-78
2021/08/26 11:09:14;;;;;;;7.75;4.28;;;29.40;73.00;;;;;;6155631;23;20484;-78
2021/08/26 11:11:45;;;;;;;10.45;3.67;;;29.40;72.70;;;;;;6130510;23;20002;-76
2021/08/26 11:14:20;;;;;;;7.68;3.20;;;29.40;72.80;;;;;;6156585;23;20332;-82
2021/08/26 11:16:48;;;;;;;15.38;3.63;;;29.40;73.00;;;;;;6130287;23;20444;-81
2021/08/26 11:19:17;;;;;;;10.43;4.18;;;29.30;73.10;;;;;;6154521;23;20340;-80
2021/08/26 11:21:43;;;;;;;8.63;3.30;;;29.20;72.40;;;;;;6130063;23;20010;-78
2021/08/26 11:24:12;;;;;;;7.50;3.42;;;29.20;73.60;;;;;;6129700;23;20005;-77
2021/08/26 11:26:43;;;;;;;6.10;3.90;;;29.20;74.00;;;;;;6156265;23;20005;-81
2021/08/26 11:29:18;;;;;;;;;;;29.00;73.90;;;;;;6156826;23;20025;-88
2021/08/26 11:31:57;;;;;;;7.68;3.75;;;29.10;73.70;;;;;;6155256;23;19971;-80
2021/08/26 11:34:35;;;;;;;6.63;3.95;;;29.00;73.60;;;;;;6131982;23;19997;-85
2021/08/26 11:37:03;;;;;;;12.57;3.65;;;28.70;73.30;;;;;;6130094;23;20009;-80
2021/08/26 11:39:32;;;;;;;9.00;3.47;;;28.50;73.90;;;;;;6129787;23;20001;-86
2021/08/26 11:41:58;;;;;;;9.27;3.88;;;28.50;74.30;;;;;;6155002;23;20013;-81
2021/08/26 11:44:26;;;;;;;5.47;3.83;;;28.50;74.40;;;;;;6129897;23;20005;-85
2021/08/26 11:46:52;;;;;;;8.52;4.15;;;28.60;74.20;;;;;;6130062;23;20337;-94
2021/08/26 11:49:17;;;;;;;6.28;3.97;;;28.50;74.00;;;;;;6130005;23;20089;-80
2021/08/26 11:51:43;;;;;;;7.38;3.95;;;28.50;74.70;;;;;;6130027;23;20036;-78
2021/08/26 11:54:14;;;;;;;10.18;3.88;;;28.40;74.70;;;;;;6154408;23;20420;-78
2021/08/26 11:56:50;;;;;;;;;;;28.30;74.80;;;;;;6130475;23;20014;-86
2021/08/26 11:59:23;;;;;;;8.05;4.10;;;28.10;75.10;;;;;;6129064;23;20271;-79
2021/08/26 12:02:10;;;;;;;6.22;3.50;;;28.00;74.30;;;;;;6155606;23;20049;-81
2021/08/26 12:04:36;;;;;;;8.35;3.70;;;27.90;74.40;;;;;;6129369;23;20005;-88
2021/08/26 12:07:01;;;;;;;5.93;3.72;;;27.90;74.70;;;;;;6130350;23;20009;-72
2021/08/26 12:09:28;;;;;;;7.93;3.65;;;27.90;74.90;;;;;;6155305;23;20077;-73
2021/08/26 12:11:54;;;;;;;4.68;3.22;;;27.80;75.70;;;;;;6130114;23;20098;-75
2021/08/26 12:14:21;;;;;;;9.10;3.92;;;27.80;75.10;;;;;;6129980;23;20409;-80
2021/08/26 12:16:46;;;;;;;7.32;3.83;;;27.70;76.00;;;;;;6129560;23;20029;-72
2021/08/26 12:19:14;;;;;;;10.95;4.68;;;27.60;75.90;;;;;;6130203;23;20428;-86
2021/08/26 12:21:40;;;;;;;7.85;3.78;;;27.60;75.90;;;;;;6156402;23;20015;-79
2021/08/26 12:24:08;;;;;;;9.90;3.70;;;27.60;76.80;;;;;;6133853;23;20432;-77
2021/08/26 12:26:40;;;;;;;7.03;3.70;;;27.60;76.40;;;;;;6132193;23;20490;-93
2021/08/26 12:29:06;;;;;;;13.00;4.38;;;27.60;76.50;;;;;;6130092;23;20010;-81
2021/08/26 12:31:37;;;;;;;9.32;3.67;;;27.50;76.20;;;;;;6154447;23;20092;-75
2021/08/26 12:34:12;;;;;;;7.07;4.45;;;27.40;76.20;;;;;;6156013;23;20001;-71
2021/08/26 12:36:40;;;;;;;;;;;27.40;76.80;;;;;;6130146;23;20012;-75
2021/08/26 12:39:26;;;;;;;6.32;4.00;;;27.40;76.60;;;;;;6155440;23;20231;-77
2021/08/26 12:42:15;;;;;;;10.70;4.25;;;27.50;76.80;;;;;;6155659;23;20412;-77
2021/08/26 12:44:41;;;;;;;23.73;4.07;;;27.60;76.50;;;;;;6155704;23;19997;-81
2021/08/26 12:47:08;;;;;;;6.72;3.17;;;27.60;75.90;;;;;;6129536;23;20013;-72
2021/08/26 12:49:45;;;;;;;11.27;3.97;;;27.70;76.20;;;;;;6129386;23;20012;-79
2021/08/26 12:52:13;;;;;;;6.88;3.83;;;27.70;76.10;;;;;;6131410;23;20448;-75
2021/08/26 12:54:41;;;;;;;6.47;3.20;;;27.80;75.50;;;;;;6157201;23;20009;-72
2021/08/26 12:57:22;;;;;;;5.05;3.55;;;27.70;76.50;;;;;;6157245;23;20011;-84